This is the latest recevied weather packets stored in our database for station/object K7KAR-2. If no packets are shown the sender has not sent any weather packets the latest 10 day(s).
| Time | Temp. | Humidity | Pressure | Rain* | Wind** | Luminosity | Snow |
|---|---|---|---|---|---|---|---|
| 1777526904 | 6.11° C | 23% | 1021.9 hPa | 0 mm | - | 0 W/m² | - |
| 1777526598 | 6.11° C | 23% | 1022.2 hPa | 0 mm | - | 0 W/m² | - |
| 1777526293 | 5.56° C | 24% | 1021.8 hPa | 0 mm | - | 0 W/m² | - |
| 1777525989 | 5.56° C | 28% | 1022.1 hPa | 0 mm | - | 0 W/m² | - |
| 1777525687 | 5° C | 27% | 1022 hPa | 0 mm | - | 0 W/m² | - |
| 1777525384 | 4.44° C | 30% | 1022.1 hPa | 0 mm | - | 0 W/m² | - |
| 1777525080 | 5° C | 28% | 1022.2 hPa | 0 mm | - | 0 W/m² | - |
| 1777524776 | 5° C | 28% | 1022 hPa | 0 mm | - | 0 W/m² | - |
| 1777524475 | 5° C | 27% | 1022.1 hPa | 0 mm | - | 0 W/m² | - |
| 1777524172 | 5° C | 26% | 1022.2 hPa | 0 mm | - | 0 W/m² | - |
| 1777523867 | 6.11° C | 25% | 1022.2 hPa | 0 mm | - | 0 W/m² | - |
| 1777523564 | 5.56° C | 24% | 1022.5 hPa | 0 mm | - | 0 W/m² | - |
| 1777523260 | 5.56° C | 26% | 1022.2 hPa | 0 mm | - | 0 W/m² | - |
| 1777522956 | 7.22° C | 19% | 1022 hPa | 0 mm | - | 0 W/m² | - |
| 1777522654 | 6.11° C | 21% | 1022.1 hPa | 0 mm | - | 0 W/m² | - |
| 1777522350 | 6.67° C | 22% | 1022.5 hPa | 0 mm | - | 0 W/m² | - |
| 1777522047 | 6.11° C | 23% | 1022 hPa | 0 mm | - | 0 W/m² | - |
| 1777521744 | 6.67° C | 22% | 1022.1 hPa | 0 mm | - | 0 W/m² | - |
| 1777521440 | 6.67° C | 23% | 1022.2 hPa | 0 mm | - | 0 W/m² | - |
| 1777521137 | 6.11° C | 23% | 1022.2 hPa | 0 mm | - | 0 W/m² | - |
| 1777520835 | 6.11° C | 24% | 1022 hPa | 0 mm | - | 0 W/m² | - |
| 1777520532 | 6.11° C | 23% | 1022.2 hPa | 0 mm | - | 0 W/m² | - |
| 1777520228 | 7.22° C | 21% | 1022.2 hPa | 0 mm | - | 0 W/m² | - |
| 1777519927 | 7.22° C | 20% | 1022.1 hPa | 0 mm | - | 0 W/m² | - |
| 1777519623 | 7.22° C | 20% | 1022 hPa | 0 mm | - | 0 W/m² | - |
* Rain latest hour (hover to see other rain measurements)
** Current wind speed in m/s (hover to see current wind gust speed)